Time;durP1;ratioP1;P1;durP2;ratioP2;P2;SDS_P1;SDS_P2;PMS_P1;PMS_P2;Temp;Humidity;BMP_temperature;BMP_pressure;BME280_temperature;BME280_humidity;BME280_pressure;Samples;Min_cycle;Max_cycle;Signal;HPM_P1;HPM_P2
2022/03/07 00:01:53;;;;;;;1999.90;999.90;;;;;;;-2.54;43.56;102230.13;5015307;27;98701;-72
2022/03/07 00:04:21;;;;;;;1999.90;999.90;;;;;;;-2.52;44.16;102239.03;5014781;27;100612;-73
2022/03/07 00:06:49;;;;;;;1999.90;999.90;;;;;;;-2.50;43.91;102233.97;5014816;27;97654;-74
2022/03/07 00:09:17;;;;;;;1999.90;999.90;;;;;;;-2.51;44.25;102237.34;5002049;27;98886;-76
2022/03/07 00:11:45;;;;;;;1999.90;999.90;;;;;;;-2.53;44.29;102242.41;5017405;27;99782;-73
2022/03/07 00:14:13;;;;;;;1999.90;999.90;;;;;;;-2.53;44.27;102242.41;5016037;27;98723;-75
2022/03/07 00:16:41;;;;;;;1999.90;999.90;;;;;;;-2.51;44.20;102242.56;5000640;27;97648;-74
2022/03/07 00:19:11;;;;;;;1999.90;999.90;;;;;;;-2.51;44.34;102235.63;5017072;27;97653;-74
2022/03/07 00:21:39;;;;;;;1999.90;999.90;;;;;;;-2.49;44.01;102233.19;5000666;28;97928;-75
2022/03/07 00:24:08;;;;;;;1999.90;999.90;;;;;;;-2.48;44.15;102235.03;4991523;27;99215;-73
2022/03/07 00:26:36;;;;;;;1999.90;999.90;;;;;;;-2.44;44.37;102229.34;5017346;27;98429;-72
2022/03/07 00:29:04;;;;;;;1999.90;999.90;;;;;;;-2.43;43.97;102234.69;5035400;27;97809;-73
2022/03/07 00:31:32;;;;;;;1999.90;999.90;;;;;;;-2.39;43.87;102230.69;5015022;27;98149;-73
2022/03/07 00:34:00;;;;;;;1999.90;999.90;;;;;;;-2.39;43.86;102233.28;5017479;27;98907;-71
2022/03/07 00:36:29;;;;;;;1999.90;999.90;;;;;;;-2.38;43.62;102228.22;5016861;27;97635;-73
2022/03/07 00:38:58;;;;;;;1999.90;999.90;;;;;;;-2.34;43.78;102229.44;5017757;27;97300;-74
2022/03/07 00:41:26;;;;;;;1999.90;999.90;;;;;;;-2.31;43.80;102238.47;5035054;27;97924;-75
2022/03/07 00:43:54;;;;;;;1999.90;999.90;;;;;;;-2.31;44.07;102241.06;5017463;27;99227;-72
2022/03/07 00:46:21;;;;;;;1999.90;999.90;;;;;;;-2.38;43.67;102240.38;5002159;27;97525;-73
2022/03/07 00:48:49;;;;;;;1999.90;999.90;;;;;;;-2.41;44.41;102240.97;5020997;27;97731;-73
2022/03/07 00:51:17;;;;;;;1999.90;999.90;;;;;;;-2.40;43.89;102241.91;5022267;27;98580;-75
2022/03/07 00:53:47;;;;;;;1999.90;999.90;;;;;;;-2.37;43.86;102250.00;5015538;27;99056;-72
2022/03/07 00:56:16;;;;;;;1999.90;999.90;;;;;;;-2.34;43.61;102247.69;5019447;27;98182;-73
2022/03/07 00:58:44;;;;;;;1999.90;999.90;;;;;;;-2.34;44.05;102243.38;5019733;27;97659;-73
2022/03/07 01:01:14;;;;;;;1999.90;999.90;;;;;;;-2.33;43.86;102253.06;5015137;27;97981;-73
2022/03/07 01:03:43;;;;;;;1999.90;999.90;;;;;;;-2.35;44.38;102244.19;5000538;28;99481;-73
2022/03/07 01:06:11;;;;;;;1999.90;999.90;;;;;;;-2.32;43.88;102249.69;4998318;27;98254;-72
2022/03/07 01:08:40;;;;;;;1999.90;999.90;;;;;;;-2.30;43.92;102253.34;4998921;27;97027;-71
2022/03/07 01:11:11;;;;;;;1999.90;999.90;;;;;;;-2.28;44.44;102249.19;4997093;27;100647;-73
2022/03/07 01:13:41;;;;;;;1999.90;999.90;;;;;;;-2.24;44.11;102255.63;5015252;27;98070;-74
2022/03/07 01:16:09;;;;;;;1999.90;999.90;;;;;;;-2.20;43.87;102252.53;5016766;27;97460;-74
2022/03/07 01:18:38;;;;;;;1999.90;999.90;;;;;;;-2.17;43.83;102253.78;5017228;27;98160;-73
2022/03/07 01:21:06;;;;;;;1999.90;999.90;;;;;;;-2.16;43.46;102250.38;5017135;27;97898;-73
2022/03/07 01:23:34;;;;;;;1999.90;999.90;;;;;;;-2.17;43.82;102255.47;5001360;28;97564;-76
2022/03/07 01:26:02;;;;;;;1999.90;999.90;;;;;;;-2.16;44.04;102252.06;5018963;27;97381;-74
2022/03/07 01:28:32;;;;;;;1999.90;999.90;;;;;;;-2.15;43.53;102259.13;5017323;27;97950;-76
2022/03/07 01:31:00;;;;;;;1999.90;999.90;;;;;;;-2.15;44.28;102256.53;5016256;27;97627;-75
2022/03/07 01:33:28;;;;;;;1999.90;999.90;;;;;;;-2.16;44.33;102258.22;4997982;27;99167;-74
2022/03/07 01:35:56;;;;;;;1999.90;999.90;;;;;;;-2.16;43.89;102252.06;5017088;27;97540;-73
2022/03/07 01:38:24;;;;;;;1999.90;999.90;;;;;;;-2.13;43.71;102244.56;5017338;27;97715;-73
2022/03/07 01:40:52;;;;;;;1999.90;999.90;;;;;;;-2.14;43.76;102251.47;5018697;27;97960;-75
2022/03/07 01:43:20;;;;;;;1999.90;999.90;;;;;;;-2.12;43.91;102251.59;5022078;27;98106;-72
2022/03/07 01:45:49;;;;;;;1999.90;999.90;;;;;;;-2.10;43.52;102247.44;5000891;27;98880;-73
2022/03/07 01:48:17;;;;;;;1999.90;999.90;;;;;;;-2.09;44.25;102247.59;5000379;27;96860;-75
2022/03/07 01:50:45;;;;;;;1999.90;999.90;;;;;;;-2.10;43.78;102227.50;4999888;28;98194;-76
2022/03/07 01:53:13;;;;;;;1999.90;999.90;;;;;;;-2.17;44.34;102232.94;5016201;27;97633;-74
2022/03/07 01:55:42;;;;;;;1999.90;999.90;;;;;;;-2.17;43.78;102235.53;5011485;27;97186;-74
2022/03/07 01:58:11;;;;;;;1999.90;999.90;;;;;;;-2.15;44.01;102234.00;5001341;27;97913;-73
2022/03/07 02:00:39;;;;;;;1999.90;999.90;;;;;;;-2.14;44.18;102234.88;5030456;27;99580;-74
2022/03/07 02:03:09;;;;;;;1999.90;999.90;;;;;;;-2.14;43.86;102225.38;5016003;27;98892;-74
2022/03/07 02:05:41;;;;;;;1999.90;999.90;;;;;;;-2.14;44.02;102224.44;5014568;27;97856;-73
2022/03/07 02:08:15;;;;;;;1999.90;999.90;;;;;;;-2.18;43.69;102222.31;5014829;27;97321;-73
2022/03/07 02:10:49;;;;;;;1999.90;999.90;;;;;;;-2.22;43.75;102226.34;5015400;27;101828;-73
2022/03/07 02:13:19;;;;;;;1999.90;999.90;;;;;;;-2.22;44.48;102231.53;4997029;27;99815;-72
2022/03/07 02:15:54;;;;;;;1999.90;999.90;;;;;;;-2.26;44.69;102224.19;5000381;28;98616;-72
2022/03/07 02:18:28;;;;;;;1999.90;999.90;;;;;;;-2.26;44.41;102224.19;5014540;27;97642;-75
2022/03/07 02:21:05;;;;;;;1999.90;999.90;;;;;;;-2.22;44.28;102233.22;5016348;27;99170;-74
2022/03/07 02:23:35;;;;;;;1999.90;999.90;;;;;;;-1.91;43.83;102215.41;4998794;27;98835;-74
2022/03/07 02:26:09;;;;;;;1999.90;999.90;;;;;;;-2.12;44.50;102218.63;5017053;27;98155;-74
2022/03/07 02:28:38;;;;;;;1999.90;999.90;;;;;;;-2.12;44.44;102222.91;5032301;27;97174;-71
2022/03/07 02:31:06;;;;;;;1999.90;999.90;;;;;;;-2.17;43.89;102219.88;4999892;27;98899;-71
2022/03/07 02:33:34;;;;;;;1999.90;999.90;;;;;;;-2.21;44.33;102222.94;5000960;28;97879;-73
2022/03/07 02:36:02;;;;;;;1999.90;999.90;;;;;;;-2.26;44.18;102223.28;5009861;27;98714;-75
2022/03/07 02:38:31;;;;;;;1999.90;999.90;;;;;;;-2.29;44.33;102218.66;5018950;27;97174;-72
2022/03/07 02:41:01;;;;;;;1999.90;999.90;;;;;;;-2.30;44.91;102216.84;5020397;27;98954;-74
2022/03/07 02:43:29;;;;;;;1999.90;999.90;;;;;;;-2.29;44.12;102217.78;4999347;27;100461;-75
2022/03/07 02:45:58;;;;;;;1999.90;999.90;;;;;;;-2.28;44.20;102214.38;5019912;27;96828;-74
2022/03/07 02:48:26;;;;;;;1999.90;999.90;;;;;;;-2.30;44.35;102206.44;5018542;27;97014;-76
2022/03/07 02:50:55;;;;;;;1999.90;999.90;;;;;;;-2.32;44.68;102209.63;4991381;27;98041;-71
2022/03/07 02:53:23;;;;;;;1999.90;999.90;;;;;;;-2.33;44.62;102213.03;5001442;27;98140;-75
2022/03/07 02:55:51;;;;;;;1999.90;999.90;;;;;;;-2.33;44.22;102221.78;5037770;27;97826;-72
2022/03/07 02:58:20;;;;;;;1999.90;999.90;;;;;;;-2.34;44.44;102226.81;5021390;27;98132;-72
2022/03/07 03:00:48;;;;;;;1999.90;999.90;;;;;;;-2.35;44.92;102233.75;5018782;27;100120;-72
2022/03/07 03:03:17;;;;;;;1999.90;999.90;;;;;;;-2.35;45.04;102244.19;5006533;27;98322;-73
2022/03/07 03:05:45;;;;;;;1999.90;999.90;;;;;;;-2.35;44.97;102233.75;5020095;27;97977;-75
2022/03/07 03:08:13;;;;;;;1999.90;999.90;;;;;;;-2.33;44.73;102228.69;5021689;27;97436;-74
2022/03/07 03:10:41;;;;;;;1999.90;999.90;;;;;;;-2.33;44.88;102224.41;5020823;27;99283;-70
2022/03/07 03:13:09;;;;;;;1999.90;999.90;;;;;;;-2.34;44.12;102219.94;5025895;27;97934;-73
2022/03/07 03:15:38;;;;;;;1999.90;999.90;;;;;;;-2.34;44.63;102219.00;5028798;27;98538;-72
2022/03/07 03:18:06;;;;;;;1999.90;999.90;;;;;;;-2.36;44.46;102216.25;5031702;27;96967;-72
2022/03/07 03:20:34;;;;;;;1999.90;999.90;;;;;;;-2.37;44.28;102214.44;5033532;27;98671;-75
2022/03/07 03:23:01;;;;;;;1999.90;999.90;;;;;;;-2.38;45.05;102215.19;5032886;27;98755;-72
2022/03/07 03:25:29;;;;;;;1999.90;999.90;;;;;;;-2.38;44.87;102215.19;5026851;27;97649;-72
2022/03/07 03:27:57;;;;;;;1999.90;999.90;;;;;;;-2.40;44.96;102210.63;5007552;28;98628;-71
2022/03/07 03:30:25;;;;;;;1999.90;999.90;;;;;;;-2.40;44.64;102223.66;5020034;27;99057;-75
2022/03/07 03:32:54;;;;;;;1999.90;999.90;;;;;;;-2.42;44.76;102223.53;5020361;27;97822;-74
2022/03/07 03:35:22;;;;;;;1999.90;999.90;;;;;;;-2.45;44.91;102220.59;5017748;27;98178;-72
2022/03/07 03:37:49;;;;;;;1999.90;999.90;;;;;;;-2.49;45.02;102212.34;5012185;27;98042;-75
2022/03/07 03:40:18;;;;;;;1999.90;999.90;;;;;;;-2.50;45.25;102215.72;5012337;27;98810;-75
2022/03/07 03:42:46;;;;;;;1999.90;999.90;;;;;;;-2.53;44.71;102212.81;5014761;27;98751;-73
2022/03/07 03:45:14;;;;;;;1999.90;999.90;;;;;;;-2.55;45.25;102212.69;5015107;27;98392;-75
2022/03/07 03:47:43;;;;;;;1999.90;999.90;;;;;;;-2.57;44.82;102206.41;5001596;28;97923;-72
2022/03/07 03:50:14;;;;;;;1999.90;999.90;;;;;;;-2.67;44.91;102206.28;5017638;27;98905;-72
2022/03/07 03:52:43;;;;;;;1999.90;999.90;;;;;;;-2.73;45.29;102210.91;5018132;27;97684;-73
2022/03/07 03:55:12;;;;;;;1999.90;999.90;;;;;;;-2.77;45.52;102210.47;5002511;27;97138;-74
2022/03/07 03:57:40;;;;;;;1999.90;999.90;;;;;;;-2.82;45.07;102206.50;5021261;27;97816;-70
2022/03/07 04:00:11;;;;;;;1999.90;999.90;;;;;;;-2.91;45.59;102203.94;5016783;27;98072;-73
2022/03/07 04:02:39;;;;;;;1999.90;999.90;;;;;;;-2.97;45.70;102206.84;5016659;27;99346;-72
2022/03/07 04:05:08;;;;;;;1999.90;999.90;;;;;;;-3.01;45.82;102203.78;5017614;27;97131;-73
2022/03/07 04:07:38;;;;;;;1999.90;999.90;;;;;;;-3.05;45.66;102207.78;5016575;27;98325;-73
2022/03/07 04:10:07;;;;;;;1999.90;999.90;;;;;;;-3.06;46.03;102212.84;5018301;27;99874;-73
2022/03/07 04:12:35;;;;;;;1999.90;999.90;;;;;;;-3.05;45.30;102205.19;5017715;27;98347;-73
2022/03/07 04:15:03;;;;;;;1999.90;999.90;;;;;;;-3.03;45.66;102213.13;5017223;27;97064;-72
2022/03/07 04:17:31;;;;;;;1999.90;999.90;;;;;;;-3.02;45.33;102214.97;5015455;27;97211;-72
2022/03/07 04:19:59;;;;;;;1999.90;999.90;;;;;;;-3.04;45.50;102212.19;5019455;27;97780;-73
2022/03/07 04:22:26;;;;;;;1999.90;999.90;;;;;;;-3.05;45.42;102214.66;5016627;27;97821;-73
2022/03/07 04:24:56;;;;;;;1999.90;999.90;;;;;;;-3.13;45.52;102220.81;5019065;27;97074;-73
2022/03/07 04:27:24;;;;;;;1999.90;999.90;;;;;;;-3.19;45.91;102215.94;5016508;27;97963;-74
2022/03/07 04:29:54;;;;;;;1999.90;999.90;;;;;;;-3.24;45.63;102221.44;5018242;27;99362;-75
2022/03/07 04:32:22;;;;;;;1999.90;999.90;;;;;;;-3.29;46.20;102225.25;5007608;27;98580;-73
2022/03/07 04:34:50;;;;;;;1999.90;999.90;;;;;;;-3.31;46.07;102226.81;5017788;27;97247;-72
2022/03/07 04:37:18;;;;;;;1999.90;999.90;;;;;;;-3.33;46.35;102224.03;5018116;27;99030;-72
2022/03/07 04:39:46;;;;;;;1999.90;999.90;;;;;;;-3.36;46.18;102228.03;5017390;27;98174;-72
2022/03/07 04:42:16;;;;;;;1999.90;999.90;;;;;;;-3.45;45.96;102225.44;5000345;27;99135;-74
2022/03/07 04:44:44;;;;;;;1999.90;999.90;;;;;;;-3.44;46.11;102231.56;5018727;27;97631;-76
2022/03/07 04:47:12;;;;;;;1999.90;999.90;;;;;;;-3.47;46.23;102216.56;5014730;27;97147;-74
2022/03/07 04:49:40;;;;;;;1999.90;999.90;;;;;;;-3.45;46.22;102221.91;5018736;27;98872;-73
2022/03/07 04:52:08;;;;;;;1999.90;999.90;;;;;;;-3.45;46.39;102229.72;5019654;27;97993;-74
2022/03/07 04:54:36;;;;;;;1999.90;999.90;;;;;;;-3.45;46.53;102240.13;5016395;27;97231;-76
2022/03/07 04:57:05;;;;;;;1999.90;999.90;;;;;;;-3.44;46.30;102239.38;5016676;27;97254;-76
2022/03/07 04:59:36;;;;;;;1999.90;999.90;;;;;;;-3.48;46.22;102235.56;5019974;27;98389;-79
2022/03/07 05:02:09;;;;;;;1999.90;999.90;;;;;;;-3.48;46.18;102239.81;5012820;27;100371;-76
2022/03/07 05:04:39;;;;;;;1999.90;999.90;;;;;;;-3.51;46.11;102250.84;5021565;27;97317;-77
2022/03/07 05:07:09;;;;;;;1999.90;999.90;;;;;;;-3.51;46.46;102244.72;5002311;27;99789;-79
2022/03/07 05:09:37;;;;;;;1999.90;999.90;;;;;;;-3.53;46.60;102249.75;5020068;27;100889;-79
2022/03/07 05:12:06;;;;;;;1999.90;999.90;;;;;;;-3.52;46.43;102240.28;5023585;27;99689;-79
2022/03/07 05:14:36;;;;;;;1999.90;999.90;;;;;;;-3.51;46.01;102245.63;4992924;27;97387;-78
2022/03/07 05:17:06;;;;;;;1999.90;999.90;;;;;;;-3.51;46.39;102250.84;5019737;27;98470;-77
2022/03/07 05:19:37;;;;;;;1999.90;999.90;;;;;;;-3.48;46.35;102248.56;5021389;27;102237;-79
2022/03/07 05:22:08;;;;;;;1999.90;999.90;;;;;;;-3.45;46.22;102255.72;5005450;27;99576;-79
2022/03/07 05:24:37;;;;;;;1999.90;999.90;;;;;;;-3.44;46.21;102252.38;5020727;27;97164;-79
2022/03/07 05:27:06;;;;;;;1999.90;999.90;;;;;;;-3.40;46.36;102247.63;5021763;27;99106;-80
2022/03/07 05:29:37;;;;;;;1999.90;999.90;;;;;;;-3.36;46.29;102251.44;5018671;27;101811;-79
2022/03/07 05:32:08;;;;;;;1999.90;999.90;;;;;;;-3.34;46.58;102268.13;5005197;27;101986;-78
2022/03/07 05:34:37;;;;;;;1999.90;999.90;;;;;;;-3.30;45.74;102267.69;5019679;27;98419;-78
2022/03/07 05:37:10;;;;;;;1999.90;999.90;;;;;;;-3.31;45.84;102261.53;5022743;27;98055;-80
2022/03/07 05:39:39;;;;;;;1999.90;999.90;;;;;;;-3.26;46.08;102273.38;5006418;28;99436;-78
2022/03/07 05:42:09;;;;;;;1999.90;999.90;;;;;;;-3.23;45.59;102271.06;5004845;27;100036;-79
2022/03/07 05:44:41;;;;;;;1999.90;999.90;;;;;;;-3.21;46.11;102271.19;5016802;27;97743;-79
2022/03/07 05:47:09;;;;;;;1999.90;999.90;;;;;;;-3.19;45.68;102267.06;5001532;27;100958;-78
2022/03/07 05:49:37;;;;;;;1999.90;999.90;;;;;;;-3.16;46.21;102270.88;5016499;27;98397;-78
2022/03/07 05:52:06;;;;;;;1999.90;999.90;;;;;;;-3.15;46.01;102277.03;5017329;27;98811;-80
2022/03/07 05:54:34;;;;;;;1999.90;999.90;;;;;;;-3.13;46.05;102280.69;5035818;27;98259;-79
2022/03/07 05:57:02;;;;;;;1999.90;999.90;;;;;;;-3.12;45.56;102285.13;5020222;27;97540;-77
2022/03/07 05:59:30;;;;;;;1999.90;999.90;;;;;;;-3.11;45.76;102286.97;5020542;27;101669;-79
2022/03/07 06:01:59;;;;;;;1999.90;999.90;;;;;;;-3.11;45.50;102282.66;5021876;27;97816;-79
2022/03/07 06:04:27;;;;;;;1999.90;999.90;;;;;;;-3.09;45.82;102285.41;5030323;27;96811;-78
2022/03/07 06:06:55;;;;;;;1999.90;999.90;;;;;;;-3.10;45.75;102288.81;5029165;27;97108;-78
2022/03/07 06:09:23;;;;;;;1999.90;999.90;;;;;;;-3.11;46.22;102281.78;5031127;27;98807;-79
2022/03/07 06:11:51;;;;;;;1999.90;999.90;;;;;;;-3.12;46.34;102285.13;5029092;27;98753;-79
2022/03/07 06:14:19;;;;;;;1999.90;999.90;;;;;;;-3.11;45.76;102279.16;5036828;27;97911;-78
2022/03/07 06:16:47;;;;;;;1999.90;999.90;;;;;;;-3.09;46.33;102277.59;5039964;27;97258;-80
2022/03/07 06:19:16;;;;;;;1999.90;999.90;;;;;;;-3.10;45.79;102281.00;5017999;27;99461;-78
2022/03/07 06:21:44;;;;;;;1999.90;999.90;;;;;;;-3.11;45.79;102286.97;5043987;27;98864;-77
2022/03/07 06:24:12;;;;;;;1999.90;999.90;;;;;;;-3.11;45.78;102282.66;5010813;27;97815;-79
2022/03/07 06:26:40;;;;;;;1999.90;999.90;;;;;;;-3.14;46.05;102291.88;5024639;27;96783;-80
2022/03/07 06:29:08;;;;;;;1999.90;999.90;;;;;;;-3.18;46.33;102290.63;5019008;27;99517;-78
2022/03/07 06:31:36;;;;;;;1999.90;999.90;;;;;;;-3.20;46.54;102286.97;5004051;27;98131;-80
2022/03/07 06:34:04;;;;;;;1999.90;999.90;;;;;;;-3.19;46.20;102282.69;5041571;27;96778;-78
2022/03/07 06:36:34;;;;;;;1999.90;999.90;;;;;;;-3.19;46.09;102282.69;5028314;27;98651;-78
2022/03/07 06:39:02;;;;;;;1999.90;999.90;;;;;;;-3.20;46.45;102286.97;5021899;27;99583;-79
2022/03/07 06:41:29;;;;;;;1999.90;999.90;;;;;;;-3.17;46.28;102288.97;5025272;27;97716;-79
2022/03/07 06:44:00;;;;;;;1999.90;999.90;;;;;;;-3.17;46.30;102289.91;5027296;27;98344;-81
2022/03/07 06:46:29;;;;;;;1999.90;999.90;;;;;;;-3.17;45.98;102295.09;5042292;27;98652;-78
2022/03/07 06:48:57;;;;;;;1999.90;999.90;;;;;;;-3.16;45.87;102288.19;5037582;27;99101;-81
2022/03/07 06:51:25;;;;;;;1999.90;999.90;;;;;;;-3.14;46.31;102284.06;5018104;27;99417;-78
2022/03/07 06:53:54;;;;;;;1999.90;999.90;;;;;;;-3.15;46.30;102290.03;5005481;27;98443;-79
2022/03/07 06:56:22;;;;;;;1999.90;999.90;;;;;;;-3.15;45.94;102285.72;5005103;27;98023;-81
2022/03/07 06:58:49;;;;;;;1999.90;999.90;;;;;;;-3.14;45.98;102291.88;5001071;27;97698;-79
2022/03/07 07:01:17;;;;;;;1999.90;999.90;;;;;;;-3.12;46.58;102295.53;5015777;27;99929;-80
2022/03/07 07:03:45;;;;;;;1999.90;999.90;;;;;;;-3.11;46.23;102297.41;5016019;27;97548;-76
2022/03/07 07:06:13;;;;;;;1999.90;999.90;;;;;;;-3.11;46.33;102298.28;5028395;27;98405;-76
2022/03/07 07:08:41;;;;;;;1999.90;999.90;;;;;;;-3.08;46.25;102300.28;5013637;27;98658;-78
2022/03/07 07:11:10;;;;;;;1999.90;999.90;;;;;;;-3.08;45.79;102303.81;5020083;27;98309;-75
2022/03/07 07:13:40;;;;;;;1999.90;999.90;;;;;;;-3.05;46.11;102305.78;5022368;27;97549;-74
2022/03/07 07:16:08;;;;;;;1999.90;999.90;;;;;;;-3.04;45.96;102312.84;5015319;27;98448;-76
2022/03/07 07:18:36;;;;;;;1999.90;999.90;;;;;;;-3.02;45.98;102313.94;5017088;27;98764;-74
2022/03/07 07:21:04;;;;;;;1999.90;999.90;;;;;;;-3.02;46.44;102313.94;4992044;27;99050;-75
2022/03/07 07:23:32;;;;;;;1999.90;999.90;;;;;;;-2.99;46.03;102317.75;5022043;27;99603;-76
2022/03/07 07:26:00;;;;;;;1999.90;999.90;;;;;;;-2.98;46.06;102316.03;5039696;27;97164;-75
2022/03/07 07:28:29;;;;;;;1999.90;999.90;;;;;;;-2.99;46.27;102320.34;5016162;27;100722;-76
2022/03/07 07:30:57;;;;;;;1999.90;999.90;;;;;;;-2.96;46.43;102323.25;5033846;27;97583;-76
2022/03/07 07:33:24;;;;;;;1999.90;999.90;;;;;;;-2.91;46.05;102328.94;5014554;27;97912;-74
2022/03/07 07:35:52;;;;;;;1999.90;999.90;;;;;;;-2.94;46.22;102323.41;5020326;27;98711;-75
2022/03/07 07:38:21;;;;;;;1999.90;999.90;;;;;;;-2.93;46.22;102326.16;5017734;27;100190;-77
2022/03/07 07:40:49;;;;;;;1999.90;999.90;;;;;;;-2.91;46.26;102329.81;5027886;27;98428;-76
2022/03/07 07:43:18;;;;;;;1999.90;999.90;;;;;;;-2.90;45.80;102330.75;5018882;27;98704;-77
2022/03/07 07:45:47;;;;;;;1999.90;999.90;;;;;;;-2.91;46.00;102321.13;5020377;27;97887;-78
2022/03/07 07:48:14;;;;;;;1999.90;999.90;;;;;;;-2.89;45.76;102323.09;5015474;27;99003;-75
2022/03/07 07:50:42;;;;;;;1999.90;999.90;;;;;;;-2.86;45.71;102326.03;4998856;27;99128;-73
2022/03/07 07:53:10;;;;;;;1999.90;999.90;;;;;;;-2.86;46.32;102305.19;5019255;27;98084;-75
2022/03/07 07:55:38;;;;;;;1999.90;999.90;;;;;;;-2.82;45.79;102304.69;5019836;27;97190;-79
2022/03/07 07:58:06;;;;;;;1999.90;999.90;;;;;;;-2.75;45.76;102307.91;5020114;27;100034;-77
2022/03/07 08:00:34;;;;;;;1999.90;999.90;;;;;;;-2.72;45.91;102310.81;5017538;27;99147;-78
2022/03/07 08:03:03;;;;;;;1999.90;999.90;;;;;;;-2.67;45.89;102309.59;5032686;27;98925;-73
2022/03/07 08:05:31;;;;;;;1999.90;999.90;;;;;;;-2.62;45.41;102318.78;5037985;27;97011;-75
2022/03/07 08:07:59;;;;;;;1999.90;999.90;;;;;;;-2.56;45.82;102324.59;5039216;27;99477;-77
2022/03/07 08:10:27;;;;;;;1999.90;999.90;;;;;;;-2.54;45.93;102328.22;5015282;27;97514;-76
2022/03/07 08:12:54;;;;;;;1999.90;999.90;;;;;;;-2.56;46.10;102328.09;5017870;27;99494;-75
2022/03/07 08:15:22;;;;;;;1999.90;999.90;;;;;;;-2.52;45.74;102325.03;5034527;27;96945;-78
2022/03/07 08:17:51;;;;;;;1999.90;999.90;;;;;;;-2.17;44.94;102321.59;5011832;27;100574;-75
2022/03/07 08:20:22;;;;;;;1999.90;999.90;;;;;;;-2.30;45.39;102315.91;5012511;27;99123;-74
2022/03/07 08:22:51;;;;;;;1999.90;999.90;;;;;;;-2.23;45.88;102328.75;5031380;27;99086;-75
2022/03/07 08:25:19;;;;;;;1999.90;999.90;;;;;;;-2.18;45.71;102324.91;5016089;27;98908;-75
2022/03/07 08:27:47;;;;;;;1999.90;999.90;;;;;;;-2.14;45.32;102324.47;5029488;27;98886;-76
2022/03/07 08:30:17;;;;;;;1999.90;999.90;;;;;;;-2.16;45.91;102323.41;5022356;27;98213;-75
2022/03/07 08:32:45;;;;;;;1999.90;999.90;;;;;;;-2.16;45.42;102328.63;5015999;27;97906;-78
2022/03/07 08:35:14;;;;;;;1999.90;999.90;;;;;;;-2.17;45.54;102323.25;5012391;27;99148;-75
2022/03/07 08:37:45;;;;;;;1999.90;999.90;;;;;;;-2.15;45.36;102330.47;5018519;27;98810;-76
2022/03/07 08:40:15;;;;;;;1999.90;999.90;;;;;;;-2.14;45.17;102315.72;5018309;27;100238;-78
2022/03/07 08:42:43;;;;;;;1999.90;999.90;;;;;;;-2.09;45.09;102320.59;5030477;27;98086;-76
2022/03/07 08:45:15;;;;;;;1999.90;999.90;;;;;;;-2.02;45.60;102320.44;5035954;27;97610;-74
2022/03/07 08:47:43;;;;;;;1999.90;999.90;;;;;;;-1.96;45.13;102327.91;5018731;27;98871;-76
2022/03/07 08:50:14;;;;;;;1999.90;999.90;;;;;;;-1.94;45.91;102329.91;5017270;27;98997;-78
2022/03/07 08:52:43;;;;;;;1999.90;999.90;;;;;;;-1.89;45.29;102328.63;5020262;27;97919;-78
2022/03/07 08:55:12;;;;;;;1999.90;999.90;;;;;;;-1.85;45.08;102330.78;4998675;27;97029;-76
2022/03/07 08:57:40;;;;;;;1999.90;999.90;;;;;;;-1.79;44.93;102338.28;5021906;27;97492;-76
2022/03/07 09:00:13;;;;;;;1999.90;999.90;;;;;;;-1.71;45.00;102331.16;5014903;27;97654;-77
2022/03/07 09:02:47;;;;;;;1999.90;999.90;;;;;;;-1.65;45.25;102335.25;5010188;27;96934;-71
2022/03/07 09:05:16;;;;;;;1999.90;999.90;;;;;;;-1.58;45.09;102334.16;5026866;27;98705;-74
2022/03/07 09:07:46;;;;;;;1999.90;999.90;;;;;;;-1.49;45.13;102324.59;5030510;27;100131;-74
2022/03/07 09:10:15;;;;;;;1999.90;999.90;;;;;;;-1.44;44.75;102332.06;5014209;27;99930;-70
2022/03/07 09:12:43;;;;;;;1999.90;999.90;;;;;;;-1.40;45.17;102334.22;5019963;27;98449;-70
2022/03/07 09:15:11;;;;;;;1999.90;999.90;;;;;;;-1.31;45.01;102328.91;5012605;27;98761;-71
2022/03/07 09:17:39;;;;;;;1999.90;999.90;;;;;;;-1.28;44.85;102324.88;5019598;27;101097;-72
2022/03/07 09:20:08;;;;;;;1999.90;999.90;;;;;;;-1.21;44.90;102322.06;5019811;27;99652;-72
2022/03/07 09:22:37;;;;;;;1999.90;999.90;;;;;;;-1.13;44.83;102335.84;5023823;27;97055;-74
2022/03/07 09:25:08;;;;;;;1999.90;999.90;;;;;;;-1.06;44.25;102323.50;5015219;27;98881;-74
2022/03/07 09:27:36;;;;;;;1999.90;999.90;;;;;;;-1.01;44.17;102322.22;5023916;27;98229;-72
2022/03/07 09:30:07;;;;;;;1999.90;999.90;;;;;;;-1.00;44.33;102318.84;5038823;27;99280;-73
2022/03/07 09:32:36;;;;;;;1999.90;999.90;;;;;;;-1.02;44.85;102312.53;5038816;27;98833;-71
2022/03/07 09:35:05;;;;;;;1999.90;999.90;;;;;;;-0.97;44.75;102308.66;5002042;27;98090;-70
2022/03/07 09:37:33;;;;;;;1999.90;999.90;;;;;;;-0.92;44.90;102314.28;5022929;27;97847;-71
2022/03/07 09:40:01;;;;;;;1999.90;999.90;;;;;;;-0.91;44.78;102313.53;5007636;27;101846;-71
2022/03/07 09:42:30;;;;;;;1999.90;999.90;;;;;;;-0.87;44.67;102306.09;5022939;27;98037;-71
2022/03/07 09:44:59;;;;;;;1999.90;999.90;;;;;;;-0.82;44.30;102297.00;5038720;27;97049;-71
2022/03/07 09:47:28;;;;;;;1999.90;999.90;;;;;;;-0.75;44.64;102300.13;5035559;27;100685;-77
2022/03/07 09:49:56;;;;;;;1999.90;999.90;;;;;;;-0.70;44.48;102289.31;5034194;27;97879;-76
2022/03/07 09:52:23;;;;;;;1999.90;999.90;;;;;;;-0.65;44.40;102298.50;5035038;27;97284;-76
2022/03/07 09:54:51;;;;;;;1999.90;999.90;;;;;;;-0.55;44.39;102292.38;5017500;27;97139;-77
2022/03/07 09:57:19;;;;;;;1999.90;999.90;;;;;;;-0.50;44.32;102297.25;5000303;27;98139;-77
2022/03/07 09:59:48;;;;;;;1999.90;999.90;;;;;;;-0.45;44.14;102290.75;5016015;27;101413;-77
2022/03/07 10:02:22;;;;;;;1999.90;999.90;;;;;;;-0.41;44.38;102285.00;5033414;27;99291;-78
2022/03/07 10:04:51;;;;;;;1999.90;999.90;;;;;;;-0.39;44.54;102287.75;5016756;27;97613;-78
2022/03/07 10:07:18;;;;;;;1999.90;999.90;;;;;;;-0.40;44.19;102293.75;5039059;27;98273;-74
2022/03/07 10:09:47;;;;;;;1999.90;999.90;;;;;;;-0.40;44.38;102297.31;5012930;27;99526;-75
2022/03/07 10:12:15;;;;;;;1999.90;999.90;;;;;;;-0.38;44.15;102289.59;4998404;27;96835;-73
2022/03/07 10:14:44;;;;;;;1999.90;999.90;;;;;;;-0.35;44.41;102297.69;5022271;27;97577;-72
2022/03/07 10:17:23;;;;;;;1999.90;999.90;;;;;;;-0.31;44.69;102307.66;4998250;27;99628;-72
2022/03/07 10:19:50;;;;;;;1999.90;999.90;;;;;;;-0.24;44.32;102305.72;5013283;27;98496;-74
2022/03/07 10:22:21;;;;;;;1999.90;999.90;;;;;;;-0.17;44.34;102304.53;5009040;27;98706;-75
2022/03/07 10:24:58;;;;;;;1999.90;999.90;;;;;;;-0.12;44.56;102305.88;5011313;27;97662;-74
2022/03/07 10:27:27;;;;;;;1999.90;999.90;;;;;;;-0.05;44.27;102306.56;5013909;27;98289;-75
2022/03/07 10:29:55;;;;;;;1999.90;999.90;;;;;;;0.04;44.24;102307.38;5032992;27;98126;-75
2022/03/07 10:32:24;;;;;;;1999.90;999.90;;;;;;;0.13;43.92;102302.94;5032376;27;97829;-76
2022/03/07 10:34:53;;;;;;;1999.90;999.90;;;;;;;0.19;43.98;102306.06;4996812;27;99642;-74
2022/03/07 10:37:31;;;;;;;1999.90;999.90;;;;;;;0.23;44.17;102301.13;5017324;27;101034;-77
2022/03/07 10:39:59;;;;;;;1999.90;999.90;;;;;;;0.29;43.84;102292.09;5012133;27;99604;-75
2022/03/07 10:42:27;;;;;;;1999.90;999.90;;;;;;;0.37;43.70;102300.63;5035006;27;97276;-74
2022/03/07 10:45:05;;;;;;;1999.90;999.90;;;;;;;0.40;44.04;102293.03;5025788;27;96881;-75
2022/03/07 10:47:34;;;;;;;1999.90;999.90;;;;;;;0.41;44.00;102298.38;5017974;27;98091;-76
2022/03/07 10:50:03;;;;;;;1999.90;999.90;;;;;;;0.45;43.88;102300.50;5026663;27;99015;-76
2022/03/07 10:52:36;;;;;;;1999.90;999.90;;;;;;;0.49;43.84;102285.94;4999169;27;98239;-77
2022/03/07 10:55:05;;;;;;;1999.90;999.90;;;;;;;0.52;43.93;102302.84;5018649;27;99068;-75